Time;durP1;ratioP1;P1;durP2;ratioP2;P2;SDS_P1;SDS_P2;PMS_P1;PMS_P2;Temp;Humidity;BMP_temperature;BMP_pressure;BME280_temperature;BME280_humidity;BME280_pressure;Samples;Min_cycle;Max_cycle;Signal;HPM_P1;HPM_P2
2022/11/09 00:00:05;;;;;;;1999.90;999.90;;;;;;;9.53;100.00;98163.50;5110478;28;20497;-76
2022/11/09 00:02:31;;;;;;;1999.90;999.90;;;;;;;9.53;100.00;98149.84;5080491;28;20012;-75
2022/11/09 00:04:56;;;;;;;1999.90;999.90;;;;;;;9.55;100.00;98153.09;5110744;28;20077;-75
2022/11/09 00:07:21;;;;;;;1999.90;999.90;;;;;;;9.62;100.00;98150.88;5105011;28;20028;-81
2022/11/09 00:09:47;;;;;;;1999.90;999.90;;;;;;;9.60;100.00;98147.63;5110250;28;20123;-79
2022/11/09 00:12:12;;;;;;;1999.90;999.90;;;;;;;9.57;100.00;98150.94;5097439;28;20024;-78
2022/11/09 00:14:38;;;;;;;1999.90;999.90;;;;;;;9.53;100.00;98146.31;5109008;28;20464;-76
2022/11/09 00:17:03;;;;;;;1999.90;999.90;;;;;;;9.48;100.00;98154.53;5094106;28;20050;-81
2022/11/09 00:19:28;;;;;;;1999.90;999.90;;;;;;;9.49;100.00;98151.50;5094247;28;20028;-75
2022/11/09 00:21:54;;;;;;;1999.90;999.90;;;;;;;9.39;100.00;98151.59;5094667;28;20040;-81
2022/11/09 00:24:19;;;;;;;1999.90;999.90;;;;;;;9.46;100.00;98151.28;5094280;28;20464;-80
2022/11/09 00:26:44;;;;;;;1999.90;999.90;;;;;;;9.35;100.00;98150.53;5094246;28;20058;-78
2022/11/09 00:29:10;;;;;;;1999.90;999.90;;;;;;;9.28;100.00;98144.56;5094035;28;20031;-82
2022/11/09 00:31:35;;;;;;;1999.90;999.90;;;;;;;9.22;100.00;98151.16;5094388;28;20097;-83
2022/11/09 00:34:01;;;;;;;1999.90;999.90;;;;;;;9.28;100.00;98143.75;5095706;28;20476;-80
2022/11/09 00:36:28;;;;;;;1999.90;999.90;;;;;;;9.36;100.00;98151.34;5094367;28;20078;-83
2022/11/09 00:38:56;;;;;;;1999.90;999.90;;;;;;;9.25;100.00;98147.84;5094554;28;20127;-82
2022/11/09 00:41:22;;;;;;;1999.90;999.90;;;;;;;9.18;100.00;98155.53;5093398;28;20078;-73
2022/11/09 00:43:48;;;;;;;1999.90;999.90;;;;;;;9.24;100.00;98153.59;5093217;28;20028;-75
2022/11/09 00:46:14;;;;;;;1999.90;999.90;;;;;;;9.21;100.00;98149.50;5093394;28;20115;-74
2022/11/09 00:48:39;;;;;;;1999.90;999.90;;;;;;;9.14;100.00;98144.38;5093221;28;20127;-74
2022/11/09 00:51:05;;;;;;;1999.90;999.90;;;;;;;9.25;100.00;98150.59;5113069;28;20031;-73
2022/11/09 00:53:31;;;;;;;1999.90;999.90;;;;;;;9.14;100.00;98149.03;5113833;28;20045;-75
2022/11/09 00:56:04;;;;;;;1999.90;999.90;;;;;;;9.20;100.00;98150.63;5113421;28;20396;-75
2022/11/09 00:58:33;;;;;;;1999.90;999.90;;;;;;;9.26;100.00;98154.13;5113434;28;20031;-75
2022/11/09 01:01:04;;;;;;;1999.90;999.90;;;;;;;9.32;100.00;98150.28;5113067;28;20032;-75
2022/11/09 01:03:29;;;;;;;1999.90;999.90;;;;;;;9.40;100.00;98153.22;5094964;28;20020;-76
2022/11/09 01:05:58;;;;;;;1999.90;999.90;;;;;;;9.44;100.00;98142.53;5113081;28;20542;-77
2022/11/09 01:08:23;;;;;;;1999.90;999.90;;;;;;;9.42;100.00;98133.84;5113654;28;20022;-77
2022/11/09 01:10:49;;;;;;;1999.90;999.90;;;;;;;9.44;100.00;98143.38;5095045;28;20020;-76
2022/11/09 01:13:16;;;;;;;1999.90;999.90;;;;;;;9.41;100.00;98141.22;5113015;28;20358;-74
2022/11/09 01:15:47;;;;;;;1999.90;999.90;;;;;;;9.39;100.00;98142.59;5113052;28;20020;-74
2022/11/09 01:18:14;;;;;;;1999.90;999.90;;;;;;;9.46;100.00;98134.91;5113044;28;20498;-75
2022/11/09 01:20:41;;;;;;;1999.90;999.90;;;;;;;9.47;100.00;98131.88;5113028;28;20026;-74
2022/11/09 01:23:07;;;;;;;1999.90;999.90;;;;;;;9.44;100.00;98131.63;5112851;28;20118;-75
2022/11/09 01:25:33;;;;;;;1999.90;999.90;;;;;;;9.37;100.00;98134.69;5112875;28;20042;-75
2022/11/09 01:27:59;;;;;;;1999.90;999.90;;;;;;;9.42;100.00;98129.19;5112970;28;20061;-74
2022/11/09 01:30:25;;;;;;;1999.90;999.90;;;;;;;9.36;100.00;98127.59;5112779;28;20142;-76
2022/11/09 01:32:50;;;;;;;1999.90;999.90;;;;;;;9.45;100.00;98131.34;5112573;28;20126;-75
2022/11/09 01:35:15;;;;;;;1999.90;999.90;;;;;;;9.50;100.00;98123.13;5112561;28;20056;-75
2022/11/09 01:37:41;;;;;;;1999.90;999.90;;;;;;;9.49;100.00;98121.47;5113102;28;20495;-75
2022/11/09 01:40:07;;;;;;;1999.90;999.90;;;;;;;9.51;100.00;98115.75;5112608;28;20088;-75
2022/11/09 01:42:35;;;;;;;1999.90;999.90;;;;;;;9.44;100.00;98116.06;5112838;28;20043;-75
2022/11/09 01:45:18;;;;;;;1999.90;999.90;;;;;;;9.49;100.00;98121.47;5113043;28;20102;-74
2022/11/09 01:47:49;;;;;;;1999.90;999.90;;;;;;;9.41;100.00;98121.28;5112682;28;20159;-75
2022/11/09 01:50:20;;;;;;;1999.90;999.90;;;;;;;9.38;100.00;98116.38;5112479;28;20106;-75
2022/11/09 01:52:48;;;;;;;1999.90;999.90;;;;;;;9.46;100.00;98113.06;5112451;28;20480;-75
2022/11/09 01:55:20;;;;;;;1999.90;999.90;;;;;;;9.47;100.00;98112.78;5114771;28;20066;-77
2022/11/09 01:57:57;;;;;;;1999.90;999.90;;;;;;;9.37;100.00;98106.56;5116130;28;20034;-75
2022/11/09 02:00:23;;;;;;;1999.90;999.90;;;;;;;9.48;100.00;98110.84;5098942;28;20043;-77
2022/11/09 02:02:57;;;;;;;1999.90;999.90;;;;;;;9.47;100.00;98103.75;5092576;28;20039;-75
2022/11/09 02:05:26;;;;;;;1999.90;999.90;;;;;;;9.48;100.00;98110.84;5092033;28;20048;-76
2022/11/09 02:07:53;;;;;;;1999.90;999.90;;;;;;;9.42;100.00;98110.09;5092920;28;20034;-77
2022/11/09 02:10:27;;;;;;;1999.90;999.90;;;;;;;9.46;100.00;98104.88;5092713;28;20032;-76
2022/11/09 02:12:53;;;;;;;1999.90;999.90;;;;;;;9.36;100.00;98100.31;5092440;28;20024;-77
2022/11/09 02:15:20;;;;;;;1999.90;999.90;;;;;;;9.38;100.00;98109.03;5093347;28;20520;-78
2022/11/09 02:17:51;;;;;;;1999.90;999.90;;;;;;;9.40;100.00;98106.81;5075324;28;20477;-79
2022/11/09 02:20:17;;;;;;;1999.90;999.90;;;;;;;9.36;100.00;98097.56;5096628;28;20497;-79
2022/11/09 02:22:42;;;;;;;1999.90;999.90;;;;;;;9.51;100.00;98105.66;5099466;28;20063;-82
2022/11/09 02:25:10;;;;;;;1999.90;999.90;;;;;;;9.49;100.00;98096.13;5095539;28;20115;-87
2022/11/09 02:27:36;;;;;;;1999.90;999.90;;;;;;;9.50;100.00;98103.19;5098980;28;20032;-84
2022/11/09 02:30:03;;;;;;;1999.90;999.90;;;;;;;9.47;100.00;98098.28;5101609;28;20035;-85
2022/11/09 02:32:29;;;;;;;1999.90;999.90;;;;;;;9.39;100.00;98104.38;5099848;28;20028;-86
2022/11/09 02:34:55;;;;;;;1999.90;999.90;;;;;;;9.50;100.00;98092.25;5103586;28;20036;-81
2022/11/09 02:37:36;;;;;;;1999.90;999.90;;;;;;;9.49;100.00;98099.63;5103367;28;20480;-88
2022/11/09 02:40:06;;;;;;;1999.90;999.90;;;;;;;9.48;100.00;98091.75;5104633;28;20032;-85
2022/11/09 02:42:32;;;;;;;1999.90;999.90;;;;;;;9.54;100.00;98088.69;5104991;28;20016;-88
2022/11/09 02:44:58;;;;;;;1999.90;999.90;;;;;;;9.46;100.00;98092.00;5104073;28;20024;-79
2022/11/09 02:47:24;;;;;;;1999.90;999.90;;;;;;;9.45;100.00;98089.59;5105128;28;20035;-88
2022/11/09 02:49:49;;;;;;;1999.90;999.90;;;;;;;9.49;100.00;98088.72;5104284;28;20020;-87
2022/11/09 02:52:15;;;;;;;1999.90;999.90;;;;;;;9.45;100.00;98098.59;5102489;28;20020;-81
2022/11/09 02:54:41;;;;;;;1999.90;999.90;;;;;;;9.51;100.00;98094.72;5098822;28;20473;-76
2022/11/09 02:57:06;;;;;;;1999.90;999.90;;;;;;;9.56;100.00;98088.41;5092064;28;20031;-81
2022/11/09 02:59:32;;;;;;;1999.90;999.90;;;;;;;9.49;100.00;98091.44;5092412;28;20385;-82
2022/11/09 03:01:57;;;;;;;1999.90;999.90;;;;;;;9.52;100.00;98092.81;5091687;28;20054;-80
2022/11/09 03:04:22;;;;;;;1999.90;999.90;;;;;;;9.43;100.00;98089.84;5073313;28;20073;-79
2022/11/09 03:06:48;;;;;;;1999.90;999.90;;;;;;;9.39;100.00;98088.81;5091700;28;20032;-81
2022/11/09 03:09:13;;;;;;;1999.90;999.90;;;;;;;9.35;100.00;98095.94;5091570;28;20035;-78
2022/11/09 03:11:40;;;;;;;1999.90;999.90;;;;;;;9.40;100.00;98106.81;5091292;28;20426;-78
2022/11/09 03:14:06;;;;;;;1999.90;999.90;;;;;;;9.43;100.00;98103.50;5091583;28;20055;-84
2022/11/09 03:16:31;;;;;;;1999.90;999.90;;;;;;;9.39;100.00;98097.00;5091830;28;20813;-81
2022/11/09 03:18:57;;;;;;;1999.90;999.90;;;;;;;9.34;100.00;98088.00;5091762;28;20020;-80
2022/11/09 03:21:23;;;;;;;1999.90;999.90;;;;;;;9.23;100.00;98087.28;5091055;28;20024;-81
2022/11/09 03:23:49;;;;;;;1999.90;999.90;;;;;;;9.25;100.00;98089.72;5111296;28;20031;-81
2022/11/09 03:26:15;;;;;;;1999.90;999.90;;;;;;;9.26;100.00;98084.00;5116498;28;20043;-77
2022/11/09 03:28:43;;;;;;;1999.90;999.90;;;;;;;9.18;100.00;98070.13;5118543;28;20028;-79
2022/11/09 03:31:09;;;;;;;1999.90;999.90;;;;;;;9.23;100.00;98086.47;5120672;28;20023;-76
2022/11/09 03:33:34;;;;;;;1999.90;999.90;;;;;;;9.25;100.00;98087.81;5117025;28;20032;-79
2022/11/09 03:36:00;;;;;;;1999.90;999.90;;;;;;;9.27;100.00;98085.59;5104030;28;20119;-77
2022/11/09 03:38:25;;;;;;;1999.90;999.90;;;;;;;9.29;100.00;98085.34;5102492;28;20031;-77
2022/11/09 03:40:54;;;;;;;1999.90;999.90;;;;;;;9.32;100.00;98088.31;5115102;28;20027;-81
2022/11/09 03:43:20;;;;;;;1999.90;999.90;;;;;;;9.33;100.00;98080.94;5115018;28;20020;-78
2022/11/09 03:45:46;;;;;;;1999.90;999.90;;;;;;;9.30;100.00;98087.78;5114857;28;20043;-76
2022/11/09 03:48:12;;;;;;;1999.90;999.90;;;;;;;9.17;100.00;98087.59;5114923;28;20020;-81
2022/11/09 03:50:39;;;;;;;1999.90;999.90;;;;;;;8.98;100.00;98085.53;5115341;28;20056;-78
2022/11/09 03:53:05;;;;;;;1999.90;999.90;;;;;;;9.03;100.00;98082.78;5096696;28;20049;-80
2022/11/09 03:55:31;;;;;;;1999.90;999.90;;;;;;;8.99;100.00;98092.59;5114544;28;20076;-76
2022/11/09 03:57:56;;;;;;;1999.90;999.90;;;;;;;9.02;100.00;98092.03;5114795;28;20422;-78
2022/11/09 04:00:22;;;;;;;1999.90;999.90;;;;;;;9.04;100.00;98092.59;5114736;28;20042;-76
2022/11/09 04:02:47;;;;;;;1999.90;999.90;;;;;;;9.05;100.00;98096.16;5114853;28;20480;-76
2022/11/09 04:05:14;;;;;;;1999.90;999.90;;;;;;;8.93;100.00;98090.19;5114176;28;20047;-77
2022/11/09 04:07:45;;;;;;;1999.90;999.90;;;;;;;8.96;100.00;98100.53;5114609;28;20035;-78
2022/11/09 04:10:10;;;;;;;1999.90;999.90;;;;;;;8.97;100.00;98094.81;5114573;28;20019;-79
2022/11/09 04:12:36;;;;;;;1999.90;999.90;;;;;;;8.97;100.00;98085.81;5096150;28;20036;-78
2022/11/09 04:15:01;;;;;;;1999.90;999.90;;;;;;;8.98;100.00;98093.72;5114982;28;20110;-76
2022/11/09 04:17:26;;;;;;;1999.90;999.90;;;;;;;8.99;100.00;98081.69;5113929;28;20074;-78
2022/11/09 04:19:52;;;;;;;1999.90;999.90;;;;;;;8.90;100.00;98080.66;5114567;28;20076;-78
2022/11/09 04:22:20;;;;;;;1999.90;999.90;;;;;;;8.91;100.00;98081.47;5114626;28;20059;-78
2022/11/09 04:24:45;;;;;;;1999.90;999.90;;;;;;;8.90;100.00;98085.28;5114291;28;20027;-77
2022/11/09 04:27:10;;;;;;;1999.90;999.90;;;;;;;8.91;100.00;98084.19;5095776;28;20024;-79
2022/11/09 04:29:36;;;;;;;1999.90;999.90;;;;;;;8.95;100.00;98080.66;5115139;28;20077;-81
2022/11/09 04:32:01;;;;;;;1999.90;999.90;;;;;;;9.00;100.00;98082.50;5119383;28;20034;-78
2022/11/09 04:34:26;;;;;;;1999.90;999.90;;;;;;;9.08;100.00;98079.22;5117812;28;20019;-76
2022/11/09 04:36:52;;;;;;;1999.90;999.90;;;;;;;9.04;100.00;98084.41;5106903;28;20035;-77
2022/11/09 04:39:17;;;;;;;1999.90;999.90;;;;;;;9.00;100.00;98071.59;5094199;28;20040;-76
2022/11/09 04:41:42;;;;;;;1999.90;999.90;;;;;;;9.04;100.00;98084.41;5109078;28;20045;-77
2022/11/09 04:44:08;;;;;;;1999.90;999.90;;;;;;;9.03;100.00;98079.22;5092786;28;20115;-75
2022/11/09 04:46:33;;;;;;;1999.90;999.90;;;;;;;9.08;100.00;98062.84;5092787;28;20036;-77
2022/11/09 04:48:58;;;;;;;1999.90;999.90;;;;;;;9.13;100.00;98070.97;5092689;28;20118;-76
2022/11/09 04:51:24;;;;;;;1999.90;999.90;;;;;;;9.11;100.00;98068.50;5092657;28;20024;-77
2022/11/09 04:53:49;;;;;;;1999.90;999.90;;;;;;;9.07;100.00;98072.94;5095191;28;20024;-77
2022/11/09 04:56:14;;;;;;;1999.90;999.90;;;;;;;9.10;100.00;98066.09;5113020;28;20499;-77
2022/11/09 04:58:40;;;;;;;1999.90;999.90;;;;;;;9.12;100.00;98074.78;5113295;28;20038;-77
2022/11/09 05:01:13;;;;;;;1999.90;999.90;;;;;;;9.14;100.00;98076.16;5113452;28;20110;-77
2022/11/09 05:03:39;;;;;;;1999.90;999.90;;;;;;;9.19;100.00;98063.56;5113406;28;20106;-78
2022/11/09 05:06:30;;;;;;;1999.90;999.90;;;;;;;9.09;100.00;98070.72;5113255;28;20630;-76
2022/11/09 05:08:51;;;;;;;1999.90;999.90;;;;;;;9.03;100.00;98062.84;5113607;28;20047;-80
2022/11/09 05:11:18;;;;;;;1999.90;999.90;;;;;;;8.92;100.00;98069.47;5113003;28;20521;-80
2022/11/09 05:13:44;;;;;;;1999.90;999.90;;;;;;;8.86;100.00;98070.59;5084024;28;20024;-77
2022/11/09 05:16:10;;;;;;;1999.90;999.90;;;;;;;8.99;100.00;98070.00;5092480;28;20020;-77
2022/11/09 05:18:35;;;;;;;1999.90;999.90;;;;;;;9.00;100.00;98077.06;5091470;28;20475;-79
2022/11/09 05:21:01;;;;;;;1999.90;999.90;;;;;;;9.02;100.00;98061.25;5092214;28;20081;-79
2022/11/09 05:26:10;;;;;;;1999.90;999.90;;;;;;;9.13;100.00;98079.16;5092137;28;20492;-74
2022/11/09 05:28:35;;;;;;;1999.90;999.90;;;;;;;9.08;100.00;98087.38;5092135;28;20032;-78
2022/11/09 05:31:01;;;;;;;1999.90;999.90;;;;;;;9.11;100.00;98086.81;5092216;28;20180;-77
2022/11/09 05:33:26;;;;;;;1999.90;999.90;;;;;;;9.15;100.00;98077.78;5091805;28;20028;-79
2022/11/09 05:35:55;;;;;;;1999.90;999.90;;;;;;;9.19;100.00;98082.66;5092000;28;20043;-78
2022/11/09 05:38:21;;;;;;;1999.90;999.90;;;;;;;9.16;100.00;98081.31;5097421;28;20024;-75
2022/11/09 05:40:51;;;;;;;1999.90;999.90;;;;;;;9.16;100.00;98078.59;5108592;28;20023;-76
2022/11/09 05:43:16;;;;;;;1999.90;999.90;;;;;;;9.15;100.00;98074.22;5092344;28;20081;-79
2022/11/09 05:45:42;;;;;;;1999.90;999.90;;;;;;;9.02;100.00;98074.88;5091250;28;20115;-78
2022/11/09 05:48:08;;;;;;;1999.90;999.90;;;;;;;9.08;100.00;98079.22;5092373;28;20040;-78
2022/11/09 05:50:34;;;;;;;1999.90;999.90;;;;;;;9.03;100.00;98084.69;5092478;28;20023;-81
2022/11/09 05:53:01;;;;;;;1999.90;999.90;;;;;;;9.01;100.00;98082.25;5092472;28;20024;-79
2022/11/09 05:55:26;;;;;;;1999.90;999.90;;;;;;;8.90;100.00;98082.56;5093630;28;20032;-73
2022/11/09 05:57:52;;;;;;;1999.90;999.90;;;;;;;8.92;100.00;98083.13;5108733;28;20028;-83
2022/11/09 06:00:17;;;;;;;1999.90;999.90;;;;;;;8.91;100.00;98085.03;5105576;28;20062;-79
2022/11/09 06:02:43;;;;;;;1999.90;999.90;;;;;;;8.91;100.00;98078.75;5100310;28;20039;-76
2022/11/09 06:05:08;;;;;;;1999.90;999.90;;;;;;;9.05;100.00;98074.31;5091865;28;20123;-77
2022/11/09 06:07:34;;;;;;;1999.90;999.90;;;;;;;9.18;100.00;98068.19;5091493;28;20062;-76
2022/11/09 06:09:59;;;;;;;1999.90;999.90;;;;;;;9.11;100.00;98067.72;5093667;28;20439;-77
2022/11/09 06:12:24;;;;;;;1999.90;999.90;;;;;;;9.18;100.00;98076.38;5092121;28;20750;-74
2022/11/09 06:14:50;;;;;;;1999.90;999.90;;;;;;;9.24;100.00;98091.63;5101624;28;20492;-77
2022/11/09 06:17:15;;;;;;;1999.90;999.90;;;;;;;9.20;100.00;98093.31;5099607;28;20034;-84
2022/11/09 06:19:41;;;;;;;1999.90;999.90;;;;;;;9.28;100.00;98089.97;5115537;28;20111;-87
2022/11/09 06:22:06;;;;;;;1999.90;999.90;;;;;;;9.24;100.00;98093.56;5123483;28;20039;-78
2022/11/09 06:24:31;;;;;;;1999.90;999.90;;;;;;;9.26;100.00;98097.63;5097113;28;20035;-78
2022/11/09 06:26:56;;;;;;;1999.90;999.90;;;;;;;9.31;100.00;98100.31;5101981;28;20492;-76
2022/11/09 06:29:22;;;;;;;1999.90;999.90;;;;;;;9.17;100.00;98102.06;5106494;28;21713;-75
2022/11/09 06:31:50;;;;;;;1999.90;999.90;;;;;;;9.26;100.00;98089.44;5098840;28;20048;-78
2022/11/09 06:34:15;;;;;;;1999.90;999.90;;;;;;;9.32;100.00;98099.22;5073218;28;20369;-76
2022/11/09 06:36:41;;;;;;;1999.90;999.90;;;;;;;9.25;100.00;98096.00;5093247;28;20070;-75
2022/11/09 06:39:07;;;;;;;1999.90;999.90;;;;;;;9.28;100.00;98100.06;5092351;28;20028;-76
2022/11/09 06:41:33;;;;;;;1999.90;999.90;;;;;;;9.34;100.00;98098.94;5096846;28;20088;-78
2022/11/09 06:43:58;;;;;;;1999.90;999.90;;;;;;;9.38;100.00;98095.38;5096374;28;20064;-76
2022/11/09 06:46:24;;;;;;;1999.90;999.90;;;;;;;9.52;100.00;98095.53;5091483;28;20461;-75
2022/11/09 06:48:49;;;;;;;1999.90;999.90;;;;;;;9.56;100.00;98107.50;5090434;28;20111;-75
2022/11/09 06:51:15;;;;;;;1999.90;999.90;;;;;;;9.52;100.00;98107.25;5090055;28;20020;-76
2022/11/09 06:53:40;;;;;;;1999.90;999.90;;;;;;;9.60;100.00;98103.13;5089954;28;20036;-76
2022/11/09 06:56:06;;;;;;;1999.90;999.90;;;;;;;9.52;100.00;98110.00;5089969;28;20448;-75
2022/11/09 06:58:32;;;;;;;1999.90;999.90;;;;;;;9.54;100.00;98105.06;5089662;28;20024;-75
2022/11/09 07:00:58;;;;;;;1999.90;999.90;;;;;;;9.43;100.00;98108.97;5085131;28;20071;-82
2022/11/09 07:03:24;;;;;;;1999.90;999.90;;;;;;;9.45;100.00;98106.78;5105957;28;20039;-83
2022/11/09 07:05:51;;;;;;;1999.90;999.90;;;;;;;9.35;100.00;98112.31;5100221;28;20036;-76
2022/11/09 07:08:17;;;;;;;1999.90;999.90;;;;;;;9.28;100.00;98111.00;5090449;28;20035;-76
2022/11/09 07:10:43;;;;;;;1999.90;999.90;;;;;;;9.33;100.00;98117.25;5073207;28;20024;-75
2022/11/09 07:13:09;;;;;;;1999.90;999.90;;;;;;;9.38;100.00;98105.47;5091043;28;20028;-76
2022/11/09 07:15:36;;;;;;;1999.90;999.90;;;;;;;9.46;100.00;98111.13;5108200;28;20027;-81
2022/11/09 07:18:03;;;;;;;1999.90;999.90;;;;;;;9.36;100.00;98108.50;5116886;28;20091;-78
2022/11/09 07:20:28;;;;;;;1999.90;999.90;;;;;;;9.38;100.00;98109.03;5117161;28;20028;-77
2022/11/09 07:22:54;;;;;;;1999.90;999.90;;;;;;;9.44;100.00;98109.78;5114690;28;20146;-76
2022/11/09 07:25:20;;;;;;;1999.90;999.90;;;;;;;9.49;100.00;98101.56;5110937;28;20043;-75
2022/11/09 07:27:45;;;;;;;1999.90;999.90;;;;;;;9.39;100.00;98107.94;5111264;28;20476;-75
2022/11/09 07:30:11;;;;;;;1999.90;999.90;;;;;;;9.31;100.00;98108.50;5110853;28;20534;-74
2022/11/09 07:32:38;;;;;;;1999.90;999.90;;;;;;;9.48;100.00;98105.41;5110774;28;20119;-76
2022/11/09 07:35:04;;;;;;;1999.90;999.90;;;;;;;9.55;100.00;98103.16;5110374;28;20063;-75
2022/11/09 07:37:30;;;;;;;1999.90;999.90;;;;;;;9.63;100.00;98097.09;5110503;28;20373;-76
2022/11/09 07:39:56;;;;;;;1999.90;999.90;;;;;;;9.65;100.00;98105.78;5110776;28;20110;-76
2022/11/09 07:42:22;;;;;;;1999.90;999.90;;;;;;;9.64;100.00;98107.75;5110564;28;20107;-76
2022/11/09 07:44:47;;;;;;;1999.90;999.90;;;;;;;9.73;100.00;98104.38;5110679;28;20027;-76
2022/11/09 07:47:12;;;;;;;1999.90;999.90;;;;;;;9.76;100.00;98103.81;5110196;28;20388;-77
2022/11/09 07:49:38;;;;;;;1999.90;999.90;;;;;;;9.80;100.00;98107.59;5110450;28;20102;-77
2022/11/09 07:52:03;;;;;;;1999.90;999.90;;;;;;;9.81;100.00;98110.03;5110697;28;20032;-78
2022/11/09 07:54:29;;;;;;;1999.90;999.90;;;;;;;9.85;100.00;98102.09;5110660;28;20114;-75
2022/11/09 07:56:54;;;;;;;1999.90;999.90;;;;;;;9.83;100.00;98101.56;5110704;28;20059;-75
2022/11/09 07:59:19;;;;;;;1999.90;999.90;;;;;;;9.73;100.00;98107.09;5110576;28;20015;-76
2022/11/09 08:01:45;;;;;;;1999.90;999.90;;;;;;;9.75;100.00;98110.34;5092337;28;20024;-75
2022/11/09 08:04:11;;;;;;;1999.90;999.90;;;;;;;9.81;100.00;98110.03;5091971;28;20028;-76
2022/11/09 08:06:36;;;;;;;1999.90;999.90;;;;;;;9.94;100.00;98098.44;5110638;28;20028;-74
2022/11/09 08:09:02;;;;;;;1999.90;999.90;;;;;;;10.00;100.00;98100.03;5111378;28;20055;-76
2022/11/09 08:11:27;;;;;;;1999.90;999.90;;;;;;;9.97;100.00;98097.88;5115090;28;20027;-75
2022/11/09 08:13:52;;;;;;;1999.90;999.90;;;;;;;9.92;100.00;98094.38;5114112;28;20062;-76
2022/11/09 08:16:18;;;;;;;1999.90;999.90;;;;;;;10.01;100.00;98098.94;5114065;28;20436;-75
2022/11/09 08:18:43;;;;;;;1999.90;999.90;;;;;;;10.06;100.00;98095.31;5114216;28;20101;-76
2022/11/09 08:21:09;;;;;;;1999.90;999.90;;;;;;;10.11;100.00;98098.84;5114185;28;20488;-75
2022/11/09 08:23:34;;;;;;;1999.90;999.90;;;;;;;10.19;100.00;98111.06;5114375;28;20020;-74
2022/11/09 08:26:04;;;;;;;1999.90;999.90;;;;;;;10.12;100.00;98105.91;5114191;28;20476;-76
2022/11/09 08:28:31;;;;;;;1999.90;999.90;;;;;;;10.10;100.00;98101.84;5113888;28;20025;-76
2022/11/09 08:30:59;;;;;;;1999.90;999.90;;;;;;;10.08;100.00;98101.34;5113968;28;20055;-76
2022/11/09 08:33:26;;;;;;;1999.90;999.90;;;;;;;10.09;100.00;98089.28;5114042;28;20023;-75
2022/11/09 08:35:52;;;;;;;1999.90;999.90;;;;;;;10.25;100.00;98071.66;5113839;28;20031;-76
2022/11/09 08:38:18;;;;;;;1999.90;999.90;;;;;;;10.40;100.00;98085.13;5113804;28;20102;-75
2022/11/09 08:40:43;;;;;;;1999.90;999.90;;;;;;;10.44;100.00;98096.31;5113795;28;20118;-75
2022/11/09 08:43:09;;;;;;;1999.90;999.90;;;;;;;10.57;100.00;98090.16;5111612;28;20115;-74
2022/11/09 08:45:36;;;;;;;1999.90;999.90;;;;;;;10.64;100.00;98096.91;5107078;28;20026;-76
2022/11/09 08:48:03;;;;;;;1999.90;999.90;;;;;;;10.57;100.00;98101.91;5106692;28;20467;-74
2022/11/09 08:50:30;;;;;;;1999.90;999.90;;;;;;;10.65;100.00;98104.00;5113342;28;20016;-77
2022/11/09 08:52:57;;;;;;;1999.90;999.90;;;;;;;10.70;100.00;98094.91;5107614;28;20020;-80
2022/11/09 08:55:26;;;;;;;1999.90;999.90;;;;;;;10.72;100.00;98099.00;5094955;28;20161;-87
2022/11/09 08:57:59;;;;;;;1999.90;999.90;;;;;;;10.71;100.00;98094.63;5119065;28;20020;-82
2022/11/09 09:00:25;;;;;;;1999.90;999.90;;;;;;;10.56;100.00;98092.06;5112954;28;20045;-85
2022/11/09 09:02:50;;;;;;;1999.90;999.90;;;;;;;10.55;100.00;98090.47;5109681;28;20028;-86
2022/11/09 09:05:16;;;;;;;1999.90;999.90;;;;;;;10.47;100.00;98093.81;5117768;28;20116;-83
2022/11/09 09:07:42;;;;;;;1999.90;999.90;;;;;;;10.39;100.00;98099.94;5117718;28;20434;-82
2022/11/09 09:10:07;;;;;;;1999.90;999.90;;;;;;;10.36;100.00;98100.53;5113978;28;20035;-81
2022/11/09 09:12:33;;;;;;;1999.90;999.90;;;;;;;10.31;100.00;98108.75;5111806;28;20047;-84
2022/11/09 09:15:00;;;;;;;1999.90;999.90;;;;;;;10.25;100.00;98098.16;5103785;28;20024;-74
2022/11/09 09:17:26;;;;;;;1999.90;999.90;;;;;;;10.32;100.00;98101.38;5102532;28;20024;-75
2022/11/09 09:19:51;;;;;;;1999.90;999.90;;;;;;;10.30;100.00;98109.06;5102277;28;20365;-74
2022/11/09 09:22:17;;;;;;;1999.90;999.90;;;;;;;10.32;100.00;98113.13;5101344;28;20016;-77
2022/11/09 09:24:42;;;;;;;1999.90;999.90;;;;;;;10.30;100.00;98109.88;5100733;28;20023;-76
2022/11/09 09:27:07;;;;;;;1999.90;999.90;;;;;;;10.34;100.00;98113.66;5103409;28;20046;-76
2022/11/09 09:29:33;;;;;;;1999.90;999.90;;;;;;;10.40;100.00;98111.69;5106923;28;20041;-74
2022/11/09 09:31:59;;;;;;;1999.90;999.90;;;;;;;10.33;100.00;98122.16;5101377;28;20392;-74
2022/11/09 09:34:24;;;;;;;1999.90;999.90;;;;;;;10.48;100.00;98108.31;5100527;28;20062;-75
2022/11/09 09:36:53;;;;;;;1999.90;999.90;;;;;;;10.57;100.00;98120.25;5102457;28;20475;-75
2022/11/09 09:39:19;;;;;;;1999.90;999.90;;;;;;;10.70;100.00;98116.81;5100942;28;20024;-77
2022/11/09 09:41:56;;;;;;;1999.90;999.90;;;;;;;10.70;100.00;98112.16;5100813;28;20028;-76
2022/11/09 09:44:30;;;;;;;1999.90;999.90;;;;;;;10.79;100.00;98114.22;5101462;28;20024;-76
2022/11/09 09:47:18;;;;;;;1999.90;999.90;;;;;;;10.75;100.00;98103.06;5101101;28;20028;-76
2022/11/09 09:50:12;;;;;;;1999.90;999.90;;;;;;;10.94;100.00;98116.78;5097068;28;20038;-76
2022/11/09 09:52:47;;;;;;;1999.90;999.90;;;;;;;10.84;100.00;98097.78;5107340;28;20377;-76
2022/11/09 09:55:19;;;;;;;1999.90;999.90;;;;;;;10.94;100.00;98116.78;5083431;28;20027;-74
2022/11/09 09:57:51;;;;;;;1999.90;999.90;;;;;;;10.88;100.00;98107.00;5104366;28;20032;-76
2022/11/09 10:00:23;;;;;;;1999.90;999.90;;;;;;;10.97;100.00;98105.22;5104806;28;20027;-77
2022/11/09 10:02:50;;;;;;;1999.90;999.90;;;;;;;10.92;100.00;98111.59;5106608;28;20050;-89
2022/11/09 10:05:17;;;;;;;1999.90;999.90;;;;;;;10.94;100.00;98105.81;5121634;28;20101;-87
2022/11/09 10:08:00;;;;;;;1999.90;999.90;;;;;;;10.94;100.00;98111.28;5125325;28;20020;-83
2022/11/09 10:11:03;;;;;;;1999.90;999.90;;;;;;;10.68;100.00;98108.09;5127042;28;20035;-82
2022/11/09 10:13:50;;;;;;;1999.90;999.90;;;;;;;10.87;100.00;98110.88;5121930;28;20097;-86
2022/11/09 10:16:45;;;;;;;1999.90;999.90;;;;;;;10.74;100.00;98090.50;5099567;28;20114;-82
2022/11/09 10:19:22;;;;;;;1999.90;999.90;;;;;;;10.62;100.00;98106.50;5116347;28;20062;-84
2022/11/09 10:22:04;;;;;;;1999.90;999.90;;;;;;;10.71;100.00;98096.56;5111854;28;20028;-85
2022/11/09 10:24:30;;;;;;;1999.90;999.90;;;;;;;10.66;100.00;98088.41;5123263;28;20035;-86
2022/11/09 10:26:58;;;;;;;1999.90;999.90;;;;;;;10.79;100.00;98092.34;5121107;28;20024;-84
2022/11/09 10:29:32;;;;;;;1999.90;999.90;;;;;;;10.84;100.00;98093.09;5126764;28;20034;-82
2022/11/09 10:32:09;;;;;;;1999.90;999.90;;;;;;;10.85;100.00;98094.72;5120116;28;20030;-81
2022/11/09 10:35:00;;;;;;;1999.90;999.90;;;;;;;10.86;100.00;98088.16;5111157;28;20031;-87
2022/11/09 10:37:33;;;;;;;1999.90;999.90;;;;;;;10.93;100.00;98088.59;5122465;28;20016;-85
2022/11/09 10:40:05;;;;;;;1999.90;999.90;;;;;;;10.92;100.00;98094.38;5107545;28;20051;-75
2022/11/09 10:42:30;;;;;;;1999.90;999.90;;;;;;;10.98;100.00;98088.53;5106250;28;20028;-76
2022/11/09 10:44:59;;;;;;;1999.90;999.90;;;;;;;11.05;100.00;98090.91;5111886;28;20044;-77
2022/11/09 10:47:25;;;;;;;1999.90;999.90;;;;;;;11.21;100.00;98092.31;5110286;28;20023;-75
2022/11/09 10:50:24;;;;;;;1999.90;999.90;;;;;;;11.25;100.00;98085.13;5110101;28;20012;-75
2022/11/09 10:52:50;;;;;;;1999.90;999.90;;;;;;;11.23;100.00;98076.41;5110041;28;20027;-74
2022/11/09 10:55:23;;;;;;;1999.90;999.90;;;;;;;11.28;100.00;98081.78;5110359;28;20077;-76